West Falls, New York
Current Conditions -  °F | °C
As of 9:39 PM on Tuesday 21 Oct 2014 (Local Time) from KBUF Reporting Station
Drizzle Drizzle  
Wind Chill: 40°   Ceiling: 500
Heat Index: 46°   Visibility: 3mi
Dew Point: 43°   Wind: 14mph
Humidity: 89%   Direction: 20°NNE
Pressure: 30.07"   Gusts: NA
Location:  42.7°N, 78.68°W
Report Text: KBUF 220139Z 02012KT 3SM -DZ BR OVC005 08/06 A3007 RMK AO2 P0000 T00780061
Loading
Personal Weather Stations






























Interactive Weather Map New forecast layout! Learn more

10-Day Weather Forecast

Advertisements
Track Severe Weather on mobile